sensor_id;sensor_type;location;lat;lon;timestamp;P1;durP1;ratioP1;P2;durP2;ratioP2
70420;SDS011;57848;51.938;15.520;2023-12-20T00:01:16;8.00;;;3.47;;
70420;SDS011;57848;51.938;15.520;2023-12-20T00:03:41;8.17;;;3.80;;
70420;SDS011;57848;51.938;15.520;2023-12-20T00:06:07;7.33;;;3.03;;
70420;SDS011;57848;51.938;15.520;2023-12-20T00:08:32;9.47;;;3.47;;
70420;SDS011;57848;51.938;15.520;2023-12-20T00:10:58;7.40;;;3.30;;
70420;SDS011;57848;51.938;15.520;2023-12-20T00:13:23;8.25;;;3.25;;
70420;SDS011;57848;51.938;15.520;2023-12-20T00:15:48;8.30;;;3.37;;
70420;SDS011;57848;51.938;15.520;2023-12-20T00:18:14;7.27;;;2.83;;
70420;SDS011;57848;51.938;15.520;2023-12-20T00:20:39;8.40;;;3.57;;
70420;SDS011;57848;51.938;15.520;2023-12-20T00:23:04;7.80;;;3.43;;
70420;SDS011;57848;51.938;15.520;2023-12-20T00:25:30;7.40;;;3.63;;
70420;SDS011;57848;51.938;15.520;2023-12-20T00:27:55;7.80;;;3.63;;
70420;SDS011;57848;51.938;15.520;2023-12-20T00:30:20;7.35;;;3.38;;
70420;SDS011;57848;51.938;15.520;2023-12-20T00:32:45;7.53;;;3.40;;
70420;SDS011;57848;51.938;15.520;2023-12-20T00:35:12;6.53;;;3.03;;
70420;SDS011;57848;51.938;15.520;2023-12-20T00:37:41;6.95;;;3.78;;
70420;SDS011;57848;51.938;15.520;2023-12-20T00:40:07;8.48;;;4.05;;
70420;SDS011;57848;51.938;15.520;2023-12-20T00:42:33;7.47;;;4.00;;
70420;SDS011;57848;51.938;15.520;2023-12-20T00:44:59;8.43;;;3.60;;
70420;SDS011;57848;51.938;15.520;2023-12-20T00:47:24;7.07;;;3.42;;
70420;SDS011;57848;51.938;15.520;2023-12-20T00:49:50;6.77;;;3.10;;
70420;SDS011;57848;51.938;15.520;2023-12-20T00:52:15;7.70;;;3.80;;
70420;SDS011;57848;51.938;15.520;2023-12-20T00:54:42;9.23;;;5.57;;
70420;SDS011;57848;51.938;15.520;2023-12-20T00:57:07;7.20;;;3.90;;
70420;SDS011;57848;51.938;15.520;2023-12-20T00:59:33;7.80;;;3.37;;
70420;SDS011;57848;51.938;15.520;2023-12-20T01:01:58;7.97;;;3.10;;
70420;SDS011;57848;51.938;15.520;2023-12-20T01:04:23;7.60;;;3.63;;
70420;SDS011;57848;51.938;15.520;2023-12-20T01:06:49;7.10;;;3.17;;
70420;SDS011;57848;51.938;15.520;2023-12-20T01:09:14;8.83;;;3.40;;
70420;SDS011;57848;51.938;15.520;2023-12-20T01:11:39;6.30;;;2.87;;
70420;SDS011;57848;51.938;15.520;2023-12-20T01:14:05;7.77;;;3.10;;
70420;SDS011;57848;51.938;15.520;2023-12-20T01:16:30;7.10;;;2.80;;
70420;SDS011;57848;51.938;15.520;2023-12-20T01:18:55;6.63;;;3.10;;
70420;SDS011;57848;51.938;15.520;2023-12-20T01:21:21;6.85;;;3.28;;
70420;SDS011;57848;51.938;15.520;2023-12-20T01:23:46;7.27;;;3.30;;
70420;SDS011;57848;51.938;15.520;2023-12-20T01:26:12;7.60;;;3.40;;
70420;SDS011;57848;51.938;15.520;2023-12-20T01:28:37;7.23;;;3.47;;
70420;SDS011;57848;51.938;15.520;2023-12-20T01:31:03;7.20;;;3.53;;
70420;SDS011;57848;51.938;15.520;2023-12-20T01:33:29;7.67;;;3.50;;
70420;SDS011;57848;51.938;15.520;2023-12-20T01:35:54;6.87;;;3.27;;
70420;SDS011;57848;51.938;15.520;2023-12-20T01:38:19;7.72;;;3.20;;
70420;SDS011;57848;51.938;15.520;2023-12-20T01:40:45;7.87;;;3.33;;
70420;SDS011;57848;51.938;15.520;2023-12-20T01:43:11;6.73;;;3.33;;
70420;SDS011;57848;51.938;15.520;2023-12-20T01:45:37;6.90;;;3.00;;
70420;SDS011;57848;51.938;15.520;2023-12-20T01:48:03;6.73;;;3.20;;
70420;SDS011;57848;51.938;15.520;2023-12-20T01:50:29;7.37;;;3.00;;
70420;SDS011;57848;51.938;15.520;2023-12-20T01:52:56;6.88;;;2.90;;
70420;SDS011;57848;51.938;15.520;2023-12-20T01:55:25;6.53;;;2.97;;
70420;SDS011;57848;51.938;15.520;2023-12-20T01:57:52;6.35;;;2.80;;
70420;SDS011;57848;51.938;15.520;2023-12-20T02:00:18;6.50;;;2.53;;
70420;SDS011;57848;51.938;15.520;2023-12-20T02:02:48;7.30;;;3.22;;
70420;SDS011;57848;51.938;15.520;2023-12-20T02:05:15;7.03;;;2.80;;
70420;SDS011;57848;51.938;15.520;2023-12-20T02:07:41;6.43;;;2.63;;
70420;SDS011;57848;51.938;15.520;2023-12-20T02:10:07;6.70;;;2.80;;
70420;SDS011;57848;51.938;15.520;2023-12-20T02:12:33;8.10;;;3.10;;
70420;SDS011;57848;51.938;15.520;2023-12-20T02:14:58;6.33;;;2.50;;
70420;SDS011;57848;51.938;15.520;2023-12-20T02:17:24;6.17;;;2.60;;
70420;SDS011;57848;51.938;15.520;2023-12-20T02:19:50;6.95;;;2.65;;
70420;SDS011;57848;51.938;15.520;2023-12-20T02:22:15;7.03;;;3.00;;
70420;SDS011;57848;51.938;15.520;2023-12-20T02:24:41;5.80;;;2.30;;
70420;SDS011;57848;51.938;15.520;2023-12-20T02:27:06;5.90;;;2.43;;
70420;SDS011;57848;51.938;15.520;2023-12-20T02:29:35;6.40;;;2.30;;
70420;SDS011;57848;51.938;15.520;2023-12-20T02:32:01;6.55;;;2.50;;
70420;SDS011;57848;51.938;15.520;2023-12-20T02:34:27;5.93;;;2.60;;
70420;SDS011;57848;51.938;15.520;2023-12-20T02:36:53;6.10;;;2.53;;
70420;SDS011;57848;51.938;15.520;2023-12-20T02:39:18;6.07;;;2.40;;
70420;SDS011;57848;51.938;15.520;2023-12-20T02:41:44;6.03;;;2.50;;
70420;SDS011;57848;51.938;15.520;2023-12-20T02:44:10;5.83;;;2.20;;
70420;SDS011;57848;51.938;15.520;2023-12-20T02:46:35;7.30;;;2.50;;
70420;SDS011;57848;51.938;15.520;2023-12-20T02:49:00;6.30;;;2.30;;
70420;SDS011;57848;51.938;15.520;2023-12-20T02:51:26;8.27;;;2.80;;
70420;SDS011;57848;51.938;15.520;2023-12-20T02:53:51;6.03;;;2.50;;
70420;SDS011;57848;51.938;15.520;2023-12-20T02:56:16;5.80;;;2.50;;
70420;SDS011;57848;51.938;15.520;2023-12-20T02:58:41;7.50;;;2.40;;
70420;SDS011;57848;51.938;15.520;2023-12-20T03:01:07;5.70;;;2.40;;
70420;SDS011;57848;51.938;15.520;2023-12-20T03:03:32;6.03;;;2.30;;
70420;SDS011;57848;51.938;15.520;2023-12-20T03:05:58;5.87;;;2.27;;
70420;SDS011;57848;51.938;15.520;2023-12-20T03:08:23;6.13;;;2.30;;
70420;SDS011;57848;51.938;15.520;2023-12-20T03:10:48;5.13;;;1.83;;
70420;SDS011;57848;51.938;15.520;2023-12-20T03:13:14;5.70;;;2.03;;
70420;SDS011;57848;51.938;15.520;2023-12-20T03:15:39;5.40;;;2.07;;
70420;SDS011;57848;51.938;15.520;2023-12-20T03:18:05;5.72;;;2.15;;
70420;SDS011;57848;51.938;15.520;2023-12-20T03:20:31;5.40;;;1.97;;
70420;SDS011;57848;51.938;15.520;2023-12-20T03:22:59;5.43;;;1.92;;
70420;SDS011;57848;51.938;15.520;2023-12-20T03:25:27;5.30;;;1.88;;
70420;SDS011;57848;51.938;15.520;2023-12-20T03:27:52;5.10;;;1.77;;
70420;SDS011;57848;51.938;15.520;2023-12-20T03:30:18;6.10;;;2.20;;
70420;SDS011;57848;51.938;15.520;2023-12-20T03:32:43;5.17;;;2.00;;
70420;SDS011;57848;51.938;15.520;2023-12-20T03:35:09;5.28;;;1.73;;
70420;SDS011;57848;51.938;15.520;2023-12-20T03:37:34;5.17;;;1.80;;
70420;SDS011;57848;51.938;15.520;2023-12-20T03:40:00;5.50;;;1.80;;
70420;SDS011;57848;51.938;15.520;2023-12-20T03:42:26;4.90;;;1.80;;
70420;SDS011;57848;51.938;15.520;2023-12-20T03:44:51;4.90;;;1.60;;
70420;SDS011;57848;51.938;15.520;2023-12-20T03:47:16;5.43;;;2.07;;
70420;SDS011;57848;51.938;15.520;2023-12-20T03:49:42;5.70;;;1.93;;
70420;SDS011;57848;51.938;15.520;2023-12-20T03:52:07;8.70;;;1.87;;
70420;SDS011;57848;51.938;15.520;2023-12-20T03:54:33;4.80;;;1.57;;
70420;SDS011;57848;51.938;15.520;2023-12-20T03:56:59;5.97;;;1.90;;
70420;SDS011;57848;51.938;15.520;2023-12-20T03:59:25;5.30;;;1.70;;
70420;SDS011;57848;51.938;15.520;2023-12-20T04:01:50;5.27;;;2.10;;
70420;SDS011;57848;51.938;15.520;2023-12-20T04:04:15;6.07;;;2.00;;
70420;SDS011;57848;51.938;15.520;2023-12-20T04:06:41;5.80;;;2.30;;
70420;SDS011;57848;51.938;15.520;2023-12-20T04:09:06;6.17;;;2.10;;
70420;SDS011;57848;51.938;15.520;2023-12-20T04:11:34;5.65;;;2.28;;
70420;SDS011;57848;51.938;15.520;2023-12-20T04:13:59;5.60;;;2.07;;
70420;SDS011;57848;51.938;15.520;2023-12-20T04:16:25;5.43;;;1.77;;
70420;SDS011;57848;51.938;15.520;2023-12-20T04:18:51;7.33;;;2.40;;
70420;SDS011;57848;51.938;15.520;2023-12-20T04:21:16;7.47;;;2.40;;
70420;SDS011;57848;51.938;15.520;2023-12-20T04:23:43;6.15;;;2.00;;
70420;SDS011;57848;51.938;15.520;2023-12-20T04:26:08;7.87;;;2.30;;
70420;SDS011;57848;51.938;15.520;2023-12-20T04:28:34;8.02;;;2.20;;
70420;SDS011;57848;51.938;15.520;2023-12-20T04:30:59;5.90;;;2.17;;
70420;SDS011;57848;51.938;15.520;2023-12-20T04:33:24;6.03;;;2.17;;
70420;SDS011;57848;51.938;15.520;2023-12-20T04:35:50;6.10;;;2.07;;
70420;SDS011;57848;51.938;15.520;2023-12-20T04:38:15;5.90;;;1.53;;
70420;SDS011;57848;51.938;15.520;2023-12-20T04:40:40;5.93;;;1.60;;
70420;SDS011;57848;51.938;15.520;2023-12-20T04:43:06;6.22;;;2.20;;
70420;SDS011;57848;51.938;15.520;2023-12-20T04:45:32;5.30;;;1.70;;
70420;SDS011;57848;51.938;15.520;2023-12-20T04:47:57;5.20;;;1.77;;
70420;SDS011;57848;51.938;15.520;2023-12-20T04:50:23;5.38;;;1.40;;
70420;SDS011;57848;51.938;15.520;2023-12-20T04:52:48;4.80;;;1.80;;
70420;SDS011;57848;51.938;15.520;2023-12-20T04:55:13;4.17;;;1.17;;
70420;SDS011;57848;51.938;15.520;2023-12-20T04:57:39;5.00;;;1.67;;
70420;SDS011;57848;51.938;15.520;2023-12-20T05:00:04;5.60;;;1.50;;
70420;SDS011;57848;51.938;15.520;2023-12-20T05:02:30;5.27;;;1.50;;
70420;SDS011;57848;51.938;15.520;2023-12-20T05:04:56;5.07;;;1.50;;
70420;SDS011;57848;51.938;15.520;2023-12-20T05:07:21;4.80;;;1.50;;
70420;SDS011;57848;51.938;15.520;2023-12-20T05:09:47;5.00;;;1.70;;
70420;SDS011;57848;51.938;15.520;2023-12-20T05:12:12;4.77;;;1.53;;
70420;SDS011;57848;51.938;15.520;2023-12-20T05:14:37;4.73;;;1.30;;
70420;SDS011;57848;51.938;15.520;2023-12-20T05:17:03;5.53;;;1.70;;
70420;SDS011;57848;51.938;15.520;2023-12-20T05:19:28;6.00;;;1.40;;
70420;SDS011;57848;51.938;15.520;2023-12-20T05:21:54;4.70;;;1.57;;
70420;SDS011;57848;51.938;15.520;2023-12-20T05:24:19;4.77;;;1.50;;
70420;SDS011;57848;51.938;15.520;2023-12-20T05:26:44;6.87;;;1.83;;
70420;SDS011;57848;51.938;15.520;2023-12-20T05:29:10;5.53;;;1.60;;
70420;SDS011;57848;51.938;15.520;2023-12-20T05:31:35;5.43;;;1.90;;
70420;SDS011;57848;51.938;15.520;2023-12-20T05:34:01;5.30;;;1.83;;
70420;SDS011;57848;51.938;15.520;2023-12-20T05:36:26;5.57;;;1.57;;
70420;SDS011;57848;51.938;15.520;2023-12-20T05:38:51;6.47;;;1.57;;
70420;SDS011;57848;51.938;15.520;2023-12-20T05:41:16;5.87;;;1.60;;
70420;SDS011;57848;51.938;15.520;2023-12-20T05:43:42;5.10;;;1.80;;
70420;SDS011;57848;51.938;15.520;2023-12-20T05:46:09;5.68;;;2.03;;
70420;SDS011;57848;51.938;15.520;2023-12-20T05:48:36;5.77;;;2.17;;
70420;SDS011;57848;51.938;15.520;2023-12-20T05:51:01;5.77;;;2.07;;
70420;SDS011;57848;51.938;15.520;2023-12-20T05:53:26;6.20;;;2.00;;
70420;SDS011;57848;51.938;15.520;2023-12-20T05:55:52;6.00;;;2.00;;
70420;SDS011;57848;51.938;15.520;2023-12-20T05:58:17;5.40;;;2.00;;
70420;SDS011;57848;51.938;15.520;2023-12-20T06:00:43;6.20;;;2.30;;
70420;SDS011;57848;51.938;15.520;2023-12-20T06:03:08;5.57;;;1.87;;
70420;SDS011;57848;51.938;15.520;2023-12-20T06:05:33;5.47;;;2.13;;
70420;SDS011;57848;51.938;15.520;2023-12-20T06:07:58;5.50;;;1.70;;
70420;SDS011;57848;51.938;15.520;2023-12-20T06:10:27;6.78;;;2.13;;
70420;SDS011;57848;51.938;15.520;2023-12-20T06:12:53;5.30;;;2.00;;
70420;SDS011;57848;51.938;15.520;2023-12-20T06:15:18;5.30;;;1.70;;
70420;SDS011;57848;51.938;15.520;2023-12-20T06:17:44;5.03;;;1.90;;
70420;SDS011;57848;51.938;15.520;2023-12-20T06:20:11;5.90;;;2.20;;
70420;SDS011;57848;51.938;15.520;2023-12-20T06:22:38;5.93;;;1.80;;
70420;SDS011;57848;51.938;15.520;2023-12-20T06:25:04;6.03;;;2.50;;
70420;SDS011;57848;51.938;15.520;2023-12-20T06:27:30;5.88;;;2.20;;
70420;SDS011;57848;51.938;15.520;2023-12-20T06:29:57;5.50;;;2.00;;
70420;SDS011;57848;51.938;15.520;2023-12-20T06:32:23;6.20;;;2.65;;
70420;SDS011;57848;51.938;15.520;2023-12-20T06:34:49;6.05;;;2.33;;
70420;SDS011;57848;51.938;15.520;2023-12-20T06:37:14;6.60;;;2.40;;
70420;SDS011;57848;51.938;15.520;2023-12-20T06:39:40;9.50;;;4.50;;
70420;SDS011;57848;51.938;15.520;2023-12-20T06:42:05;15.20;;;5.30;;
70420;SDS011;57848;51.938;15.520;2023-12-20T06:44:31;12.00;;;4.90;;
70420;SDS011;57848;51.938;15.520;2023-12-20T06:46:56;10.37;;;4.70;;
70420;SDS011;57848;51.938;15.520;2023-12-20T06:49:22;7.60;;;2.83;;
70420;SDS011;57848;51.938;15.520;2023-12-20T06:51:47;7.10;;;3.05;;
70420;SDS011;57848;51.938;15.520;2023-12-20T06:54:13;6.40;;;3.13;;
70420;SDS011;57848;51.938;15.520;2023-12-20T06:56:38;6.67;;;2.93;;
70420;SDS011;57848;51.938;15.520;2023-12-20T06:59:03;7.43;;;2.53;;
70420;SDS011;57848;51.938;15.520;2023-12-20T07:01:29;6.23;;;2.40;;
70420;SDS011;57848;51.938;15.520;2023-12-20T07:03:54;7.20;;;3.00;;
70420;SDS011;57848;51.938;15.520;2023-12-20T07:06:19;7.77;;;2.80;;
70420;SDS011;57848;51.938;15.520;2023-12-20T07:08:45;9.35;;;3.20;;
70420;SDS011;57848;51.938;15.520;2023-12-20T07:11:11;9.13;;;3.57;;
70420;SDS011;57848;51.938;15.520;2023-12-20T07:13:36;9.00;;;3.80;;
70420;SDS011;57848;51.938;15.520;2023-12-20T07:16:01;9.80;;;4.28;;
70420;SDS011;57848;51.938;15.520;2023-12-20T07:18:27;7.30;;;3.13;;
70420;SDS011;57848;51.938;15.520;2023-12-20T07:20:53;8.45;;;4.22;;
70420;SDS011;57848;51.938;15.520;2023-12-20T07:23:19;9.03;;;2.80;;
70420;SDS011;57848;51.938;15.520;2023-12-20T07:25:45;19.08;;;7.85;;
70420;SDS011;57848;51.938;15.520;2023-12-20T07:28:10;22.10;;;11.47;;
70420;SDS011;57848;51.938;15.520;2023-12-20T07:30:36;17.27;;;8.20;;
70420;SDS011;57848;51.938;15.520;2023-12-20T07:33:01;7.70;;;3.20;;
70420;SDS011;57848;51.938;15.520;2023-12-20T07:35:27;12.00;;;5.43;;
70420;SDS011;57848;51.938;15.520;2023-12-20T07:37:52;8.63;;;3.13;;
70420;SDS011;57848;51.938;15.520;2023-12-20T07:40:18;7.90;;;3.93;;
70420;SDS011;57848;51.938;15.520;2023-12-20T07:42:43;10.07;;;3.57;;
70420;SDS011;57848;51.938;15.520;2023-12-20T07:45:09;9.23;;;4.20;;
70420;SDS011;57848;51.938;15.520;2023-12-20T07:47:35;7.37;;;3.47;;
70420;SDS011;57848;51.938;15.520;2023-12-20T07:50:01;10.00;;;4.13;;
70420;SDS011;57848;51.938;15.520;2023-12-20T07:52:27;11.67;;;5.87;;
70420;SDS011;57848;51.938;15.520;2023-12-20T07:54:54;9.15;;;4.05;;
70420;SDS011;57848;51.938;15.520;2023-12-20T07:57:19;8.67;;;3.43;;
70420;SDS011;57848;51.938;15.520;2023-12-20T07:59:44;8.40;;;3.95;;
70420;SDS011;57848;51.938;15.520;2023-12-20T08:02:10;7.33;;;3.00;;
70420;SDS011;57848;51.938;15.520;2023-12-20T08:04:35;11.40;;;4.87;;
70420;SDS011;57848;51.938;15.520;2023-12-20T08:07:00;8.90;;;3.07;;
70420;SDS011;57848;51.938;15.520;2023-12-20T08:09:26;8.33;;;2.80;;
70420;SDS011;57848;51.938;15.520;2023-12-20T08:11:51;8.53;;;3.40;;
70420;SDS011;57848;51.938;15.520;2023-12-20T08:14:16;11.93;;;3.93;;
70420;SDS011;57848;51.938;15.520;2023-12-20T08:16:42;7.77;;;3.70;;
70420;SDS011;57848;51.938;15.520;2023-12-20T08:19:07;8.98;;;4.05;;
70420;SDS011;57848;51.938;15.520;2023-12-20T08:21:32;8.97;;;4.17;;
70420;SDS011;57848;51.938;15.520;2023-12-20T08:23:58;7.80;;;2.70;;
70420;SDS011;57848;51.938;15.520;2023-12-20T08:26:25;9.47;;;3.20;;
70420;SDS011;57848;51.938;15.520;2023-12-20T08:28:51;8.07;;;3.70;;
70420;SDS011;57848;51.938;15.520;2023-12-20T08:31:17;8.53;;;2.83;;
70420;SDS011;57848;51.938;15.520;2023-12-20T08:33:46;8.48;;;3.03;;
70420;SDS011;57848;51.938;15.520;2023-12-20T08:36:13;9.13;;;3.00;;
70420;SDS011;57848;51.938;15.520;2023-12-20T08:38:38;8.00;;;3.10;;
70420;SDS011;57848;51.938;15.520;2023-12-20T08:41:04;10.02;;;3.40;;
70420;SDS011;57848;51.938;15.520;2023-12-20T08:43:33;7.50;;;2.70;;
70420;SDS011;57848;51.938;15.520;2023-12-20T08:45:59;7.38;;;2.92;;
70420;SDS011;57848;51.938;15.520;2023-12-20T08:48:24;8.63;;;2.60;;
70420;SDS011;57848;51.938;15.520;2023-12-20T08:50:50;12.57;;;3.13;;
70420;SDS011;57848;51.938;15.520;2023-12-20T08:53:17;9.18;;;2.72;;
70420;SDS011;57848;51.938;15.520;2023-12-20T08:55:43;11.20;;;2.55;;
70420;SDS011;57848;51.938;15.520;2023-12-20T08:58:09;9.80;;;2.53;;
70420;SDS011;57848;51.938;15.520;2023-12-20T09:00:34;7.37;;;2.20;;
70420;SDS011;57848;51.938;15.520;2023-12-20T09:03:01;8.77;;;2.40;;
70420;SDS011;57848;51.938;15.520;2023-12-20T09:05:27;6.70;;;2.38;;
70420;SDS011;57848;51.938;15.520;2023-12-20T09:07:52;9.70;;;2.60;;
70420;SDS011;57848;51.938;15.520;2023-12-20T09:10:18;7.00;;;1.90;;
70420;SDS011;57848;51.938;15.520;2023-12-20T09:12:47;7.60;;;2.10;;
70420;SDS011;57848;51.938;15.520;2023-12-20T09:15:15;11.77;;;4.67;;
70420;SDS011;57848;51.938;15.520;2023-12-20T09:17:40;10.32;;;4.47;;
70420;SDS011;57848;51.938;15.520;2023-12-20T09:20:06;8.90;;;3.20;;
70420;SDS011;57848;51.938;15.520;2023-12-20T09:22:33;9.23;;;1.95;;
70420;SDS011;57848;51.938;15.520;2023-12-20T09:24:59;10.70;;;2.25;;
70420;SDS011;57848;51.938;15.520;2023-12-20T09:27:25;10.93;;;2.33;;
70420;SDS011;57848;51.938;15.520;2023-12-20T09:29:50;8.00;;;2.17;;
70420;SDS011;57848;51.938;15.520;2023-12-20T09:32:15;8.53;;;3.03;;
70420;SDS011;57848;51.938;15.520;2023-12-20T09:34:41;9.40;;;4.93;;
70420;SDS011;57848;51.938;15.520;2023-12-20T09:37:06;6.83;;;2.27;;
70420;SDS011;57848;51.938;15.520;2023-12-20T09:39:32;8.40;;;2.20;;
70420;SDS011;57848;51.938;15.520;2023-12-20T09:42:04;8.03;;;2.03;;
70420;SDS011;57848;51.938;15.520;2023-12-20T09:44:30;9.10;;;2.10;;
70420;SDS011;57848;51.938;15.520;2023-12-20T09:46:57;10.73;;;2.22;;
70420;SDS011;57848;51.938;15.520;2023-12-20T09:49:22;8.73;;;3.63;;
70420;SDS011;57848;51.938;15.520;2023-12-20T09:51:48;11.37;;;2.83;;
70420;SDS011;57848;51.938;15.520;2023-12-20T09:54:16;11.00;;;2.72;;
70420;SDS011;57848;51.938;15.520;2023-12-20T09:56:42;7.18;;;2.75;;
70420;SDS011;57848;51.938;15.520;2023-12-20T09:59:08;7.70;;;2.43;;
70420;SDS011;57848;51.938;15.520;2023-12-20T10:01:33;10.30;;;2.97;;
70420;SDS011;57848;51.938;15.520;2023-12-20T10:03:59;8.07;;;2.38;;
70420;SDS011;57848;51.938;15.520;2023-12-20T10:06:25;7.68;;;2.63;;
70420;SDS011;57848;51.938;15.520;2023-12-20T10:08:50;11.43;;;3.07;;
70420;SDS011;57848;51.938;15.520;2023-12-20T10:11:16;10.65;;;2.80;;
70420;SDS011;57848;51.938;15.520;2023-12-20T10:13:42;8.83;;;2.63;;
70420;SDS011;57848;51.938;15.520;2023-12-20T10:16:08;7.93;;;2.25;;
70420;SDS011;57848;51.938;15.520;2023-12-20T10:18:33;9.80;;;2.60;;
70420;SDS011;57848;51.938;15.520;2023-12-20T10:21:00;11.20;;;3.57;;
70420;SDS011;57848;51.938;15.520;2023-12-20T10:23:25;17.27;;;7.05;;
70420;SDS011;57848;51.938;15.520;2023-12-20T10:25:57;8.60;;;2.33;;
70420;SDS011;57848;51.938;15.520;2023-12-20T10:28:25;9.25;;;2.25;;
70420;SDS011;57848;51.938;15.520;2023-12-20T10:30:54;10.75;;;2.92;;
70420;SDS011;57848;51.938;15.520;2023-12-20T10:33:25;11.20;;;2.20;;
70420;SDS011;57848;51.938;15.520;2023-12-20T10:35:52;8.20;;;2.25;;
70420;SDS011;57848;51.938;15.520;2023-12-20T10:38:19;9.00;;;2.43;;
70420;SDS011;57848;51.938;15.520;2023-12-20T10:40:45;9.48;;;2.38;;
70420;SDS011;57848;51.938;15.520;2023-12-20T10:43:11;8.48;;;2.22;;
70420;SDS011;57848;51.938;15.520;2023-12-20T10:45:36;11.63;;;3.13;;
70420;SDS011;57848;51.938;15.520;2023-12-20T10:48:02;7.45;;;2.38;;
70420;SDS011;57848;51.938;15.520;2023-12-20T10:50:28;10.30;;;2.93;;
70420;SDS011;57848;51.938;15.520;2023-12-20T10:52:55;9.65;;;2.60;;
70420;SDS011;57848;51.938;15.520;2023-12-20T10:55:24;6.50;;;1.67;;
70420;SDS011;57848;51.938;15.520;2023-12-20T10:57:54;8.63;;;2.50;;
70420;SDS011;57848;51.938;15.520;2023-12-20T11:00:31;9.05;;;3.00;;
70420;SDS011;57848;51.938;15.520;2023-12-20T11:03:00;9.50;;;2.03;;
70420;SDS011;57848;51.938;15.520;2023-12-20T11:05:31;6.47;;;1.85;;
70420;SDS011;57848;51.938;15.520;2023-12-20T11:08:06;7.68;;;2.10;;
70420;SDS011;57848;51.938;15.520;2023-12-20T11:10:39;7.00;;;1.83;;
70420;SDS011;57848;51.938;15.520;2023-12-20T11:13:07;13.77;;;2.92;;
70420;SDS011;57848;51.938;15.520;2023-12-20T11:15:37;11.32;;;2.60;;
70420;SDS011;57848;51.938;15.520;2023-12-20T11:18:03;6.73;;;2.50;;
70420;SDS011;57848;51.938;15.520;2023-12-20T11:20:38;10.25;;;3.80;;
70420;SDS011;57848;51.938;15.520;2023-12-20T11:23:06;11.43;;;2.97;;
70420;SDS011;57848;51.938;15.520;2023-12-20T11:28:23;8.60;;;2.10;;
70420;SDS011;57848;51.938;15.520;2023-12-20T11:30:50;7.18;;;2.33;;
70420;SDS011;57848;51.938;15.520;2023-12-20T11:33:21;9.43;;;1.52;;
70420;SDS011;57848;51.938;15.520;2023-12-20T11:35:50;6.47;;;1.80;;
70420;SDS011;57848;51.938;15.520;2023-12-20T11:38:16;8.88;;;2.08;;
70420;SDS011;57848;51.938;15.520;2023-12-20T11:40:42;13.07;;;2.13;;
70420;SDS011;57848;51.938;15.520;2023-12-20T11:43:08;6.30;;;1.98;;
70420;SDS011;57848;51.938;15.520;2023-12-20T11:45:34;8.50;;;2.00;;
70420;SDS011;57848;51.938;15.520;2023-12-20T11:48:00;8.93;;;1.83;;
70420;SDS011;57848;51.938;15.520;2023-12-20T11:50:27;7.20;;;1.57;;
70420;SDS011;57848;51.938;15.520;2023-12-20T11:52:53;7.53;;;2.42;;
70420;SDS011;57848;51.938;15.520;2023-12-20T11:55:20;7.97;;;2.22;;
70420;SDS011;57848;51.938;15.520;2023-12-20T11:57:46;8.25;;;2.13;;
70420;SDS011;57848;51.938;15.520;2023-12-20T12:00:12;6.53;;;2.40;;
70420;SDS011;57848;51.938;15.520;2023-12-20T12:02:39;8.77;;;1.65;;
70420;SDS011;57848;51.938;15.520;2023-12-20T12:05:04;8.40;;;1.57;;
70420;SDS011;57848;51.938;15.520;2023-12-20T12:07:30;6.72;;;1.42;;
70420;SDS011;57848;51.938;15.520;2023-12-20T12:09:56;8.07;;;2.00;;
70420;SDS011;57848;51.938;15.520;2023-12-20T12:12:22;11.35;;;2.13;;
70420;SDS011;57848;51.938;15.520;2023-12-20T12:14:48;6.28;;;1.67;;
70420;SDS011;57848;51.938;15.520;2023-12-20T12:17:14;8.37;;;2.07;;
70420;SDS011;57848;51.938;15.520;2023-12-20T12:19:41;8.93;;;2.00;;
70420;SDS011;57848;51.938;15.520;2023-12-20T12:22:07;10.38;;;2.22;;
70420;SDS011;57848;51.938;15.520;2023-12-20T12:24:40;9.85;;;1.90;;
70420;SDS011;57848;51.938;15.520;2023-12-20T12:27:07;9.23;;;1.90;;
70420;SDS011;57848;51.938;15.520;2023-12-20T12:29:33;12.83;;;2.03;;
70420;SDS011;57848;51.938;15.520;2023-12-20T12:31:59;8.60;;;1.67;;
70420;SDS011;57848;51.938;15.520;2023-12-20T12:34:27;7.22;;;1.65;;
70420;SDS011;57848;51.938;15.520;2023-12-20T12:36:53;8.90;;;2.08;;
70420;SDS011;57848;51.938;15.520;2023-12-20T12:39:18;9.57;;;2.00;;
70420;SDS011;57848;51.938;15.520;2023-12-20T12:41:43;7.07;;;1.70;;
70420;SDS011;57848;51.938;15.520;2023-12-20T12:44:09;8.53;;;1.60;;
70420;SDS011;57848;51.938;15.520;2023-12-20T12:46:34;11.67;;;1.83;;
70420;SDS011;57848;51.938;15.520;2023-12-20T12:49:00;10.60;;;1.90;;
70420;SDS011;57848;51.938;15.520;2023-12-20T12:51:25;8.50;;;1.77;;
70420;SDS011;57848;51.938;15.520;2023-12-20T12:53:51;7.93;;;1.37;;
70420;SDS011;57848;51.938;15.520;2023-12-20T12:56:16;6.85;;;1.40;;
70420;SDS011;57848;51.938;15.520;2023-12-20T12:58:42;6.73;;;1.80;;
70420;SDS011;57848;51.938;15.520;2023-12-20T13:01:07;5.78;;;1.90;;
70420;SDS011;57848;51.938;15.520;2023-12-20T13:03:33;8.73;;;2.37;;
70420;SDS011;57848;51.938;15.520;2023-12-20T13:05:59;9.83;;;1.80;;
70420;SDS011;57848;51.938;15.520;2023-12-20T13:08:24;7.33;;;1.87;;
70420;SDS011;57848;51.938;15.520;2023-12-20T13:10:50;6.70;;;1.90;;
70420;SDS011;57848;51.938;15.520;2023-12-20T13:13:15;7.17;;;1.30;;
70420;SDS011;57848;51.938;15.520;2023-12-20T13:15:40;8.93;;;1.97;;
70420;SDS011;57848;51.938;15.520;2023-12-20T13:18:06;10.77;;;1.40;;
70420;SDS011;57848;51.938;15.520;2023-12-20T13:20:32;7.50;;;1.70;;
70420;SDS011;57848;51.938;15.520;2023-12-20T13:22:58;9.80;;;1.58;;
70420;SDS011;57848;51.938;15.520;2023-12-20T13:25:23;7.93;;;1.73;;
70420;SDS011;57848;51.938;15.520;2023-12-20T13:27:49;6.83;;;1.80;;
70420;SDS011;57848;51.938;15.520;2023-12-20T13:30:15;7.40;;;1.83;;
70420;SDS011;57848;51.938;15.520;2023-12-20T13:32:42;7.63;;;1.63;;
70420;SDS011;57848;51.938;15.520;2023-12-20T13:35:07;5.83;;;1.20;;
70420;SDS011;57848;51.938;15.520;2023-12-20T13:37:32;9.57;;;1.63;;
70420;SDS011;57848;51.938;15.520;2023-12-20T13:39:59;10.05;;;1.90;;
70420;SDS011;57848;51.938;15.520;2023-12-20T13:42:24;9.27;;;2.77;;
70420;SDS011;57848;51.938;15.520;2023-12-20T13:44:52;12.00;;;2.90;;
70420;SDS011;57848;51.938;15.520;2023-12-20T13:47:18;11.50;;;2.80;;
70420;SDS011;57848;51.938;15.520;2023-12-20T13:49:44;11.43;;;2.50;;
70420;SDS011;57848;51.938;15.520;2023-12-20T13:52:10;11.80;;;2.38;;
70420;SDS011;57848;51.938;15.520;2023-12-20T13:54:36;11.00;;;2.67;;
70420;SDS011;57848;51.938;15.520;2023-12-20T13:57:01;10.77;;;2.13;;
70420;SDS011;57848;51.938;15.520;2023-12-20T13:59:28;6.13;;;1.50;;
70420;SDS011;57848;51.938;15.520;2023-12-20T14:01:53;10.37;;;2.03;;
70420;SDS011;57848;51.938;15.520;2023-12-20T14:04:18;8.27;;;2.30;;
70420;SDS011;57848;51.938;15.520;2023-12-20T14:06:44;12.07;;;2.20;;
70420;SDS011;57848;51.938;15.520;2023-12-20T14:09:10;10.20;;;2.70;;
70420;SDS011;57848;51.938;15.520;2023-12-20T14:11:37;7.53;;;2.13;;
70420;SDS011;57848;51.938;15.520;2023-12-20T14:14:06;6.70;;;2.30;;
70420;SDS011;57848;51.938;15.520;2023-12-20T14:16:32;7.78;;;2.15;;
70420;SDS011;57848;51.938;15.520;2023-12-20T14:18:58;12.98;;;2.28;;
70420;SDS011;57848;51.938;15.520;2023-12-20T14:21:24;9.63;;;2.37;;
70420;SDS011;57848;51.938;15.520;2023-12-20T14:23:49;5.43;;;1.77;;
70420;SDS011;57848;51.938;15.520;2023-12-20T14:26:14;11.53;;;2.30;;
70420;SDS011;57848;51.938;15.520;2023-12-20T14:28:40;8.93;;;2.00;;